createdAt,value
2023-05-06T00:01:26.318Z,1.03
2023-05-06T00:06:29.429Z,1.11
2023-05-06T00:11:31.870Z,1.04
2023-05-06T00:16:34.278Z,1.27
2023-05-06T00:21:36.645Z,0.58
2023-05-06T00:26:38.957Z,1.23
2023-05-06T00:31:41.543Z,0.70
2023-05-06T00:36:43.971Z,1.17
2023-05-06T00:41:46.551Z,0.79
2023-05-06T00:46:48.950Z,0.98
2023-05-06T00:51:52.552Z,1.00
2023-05-06T00:56:55.151Z,0.92
2023-05-06T01:01:58.485Z,0.50
2023-05-06T01:07:29.515Z,0.92
2023-05-06T01:12:42.975Z,0.83
2023-05-06T01:17:50.863Z,0.59
2023-05-06T01:22:54.141Z,0.28
2023-05-06T01:27:56.502Z,0.48
2023-05-06T01:33:05.384Z,0.54
2023-05-06T01:38:08.338Z,0.83
2023-05-06T01:43:13.678Z,-0.09
2023-05-06T01:48:18.239Z,0.15
2023-05-06T01:53:20.664Z,0.01
2023-05-06T01:58:23.010Z,0.11
2023-05-06T02:03:25.469Z,0.58
2023-05-06T02:08:27.879Z,-0.08
2023-05-06T02:13:30.379Z,-0.12
2023-05-06T02:18:33.261Z,0.00
2023-05-06T02:23:35.690Z,0.30
2023-05-06T02:28:38.135Z,-0.07
2023-05-06T02:33:40.447Z,0.44
2023-05-06T02:38:42.811Z,-0.09
2023-05-06T02:43:45.208Z,-0.33
2023-05-06T02:48:47.489Z,-0.52
2023-05-06T02:53:49.828Z,0.40
2023-05-06T02:58:53.519Z,0.57
2023-05-06T03:03:55.849Z,0.22
2023-05-06T03:08:58.263Z,0.60
2023-05-06T03:14:00.740Z,-0.02
2023-05-06T03:19:04.170Z,0.36
2023-05-06T03:24:07.687Z,0.65
2023-05-06T03:29:11.681Z,0.67
2023-05-06T03:34:14.602Z,0.70
2023-05-06T03:39:17.118Z,-0.06
2023-05-06T03:44:21.133Z,0.63
2023-05-06T03:49:23.909Z,0.53
2023-05-06T03:54:26.263Z,0.53
2023-05-06T03:59:29.203Z,0.46
2023-05-06T04:04:33.332Z,0.77
2023-05-06T04:09:35.929Z,0.52
2023-05-06T04:14:42.273Z,1.07
2023-05-06T04:19:45.300Z,0.83
2023-05-06T04:24:47.885Z,1.19
2023-05-06T04:29:52.220Z,0.77
2023-05-06T04:34:54.848Z,1.10
2023-05-06T04:39:57.588Z,1.29
2023-05-06T04:45:01.125Z,1.11
2023-05-06T04:50:07.774Z,1.35
2023-05-06T04:55:11.842Z,1.23
2023-05-06T05:00:20.973Z,1.28
2023-05-06T05:05:24.601Z,1.19
2023-05-06T05:10:28.572Z,1.46
2023-05-06T05:15:31.046Z,1.47
2023-05-06T05:20:33.770Z,1.56
2023-05-06T05:25:38.790Z,1.45
2023-05-06T05:30:41.528Z,1.88
2023-05-06T05:35:44.972Z,1.13
2023-05-06T05:40:48.621Z,1.78
2023-05-06T05:45:51.260Z,1.79
2023-05-06T05:50:54.872Z,2.03
2023-05-06T05:55:57.289Z,1.78
2023-05-06T06:01:00.125Z,2.01
2023-05-06T06:06:02.759Z,1.48
2023-05-06T06:11:07.125Z,2.43
2023-05-06T06:16:13.851Z,1.74
2023-05-06T06:21:16.356Z,2.08
2023-05-06T06:26:19.223Z,2.13
2023-05-06T06:31:21.933Z,1.90
2023-05-06T06:36:24.547Z,2.75
2023-05-06T06:41:30.150Z,2.81
2023-05-06T06:46:32.633Z,3.12
2023-05-06T06:51:35.072Z,3.21
2023-05-06T06:56:37.555Z,3.48
2023-05-06T07:01:41.608Z,3.47
2023-05-06T07:06:44.022Z,3.77
2023-05-06T07:11:46.494Z,3.28
2023-05-06T07:16:51.362Z,3.38
2023-05-06T07:21:54.289Z,3.64
2023-05-06T07:27:01.734Z,3.92
2023-05-06T07:32:04.480Z,3.69
2023-05-06T07:37:08.372Z,3.50
2023-05-06T07:42:13.360Z,3.58
2023-05-06T07:47:26.807Z,4.38
2023-05-06T07:52:29.498Z,4.31
2023-05-06T07:57:31.839Z,4.12
2023-05-06T08:02:34.362Z,4.76
2023-05-06T08:07:37.281Z,5.15
2023-05-06T08:12:39.700Z,4.50
2023-05-06T08:17:42.204Z,4.83
2023-05-06T08:22:44.531Z,5.18
2023-05-06T08:27:47.244Z,4.95
2023-05-06T08:32:50.952Z,5.11
2023-05-06T08:37:53.357Z,4.82
2023-05-06T08:42:57.777Z,5.47
2023-05-06T08:48:00.780Z,5.68
2023-05-06T08:53:03.482Z,5.81
2023-05-06T08:58:07.632Z,5.72
2023-05-06T09:03:12.879Z,5.41
2023-05-06T09:08:18.214Z,6.00
2023-05-06T09:13:20.861Z,5.69
2023-05-06T09:18:23.640Z,6.12
2023-05-06T09:23:26.430Z,5.82
2023-05-06T09:28:33.308Z,6.18
2023-05-06T09:33:37.660Z,5.96
2023-05-06T09:38:41.726Z,6.18
2023-05-06T09:43:48.939Z,5.88
2023-05-06T09:48:52.948Z,6.66
2023-05-06T09:53:57.079Z,6.38
2023-05-06T09:59:01.682Z,6.55
2023-05-06T10:04:10.874Z,6.53
2023-05-06T10:09:13.928Z,6.13
2023-05-06T10:14:16.469Z,6.53
2023-05-06T10:19:22.997Z,6.56
2023-05-06T10:24:32.173Z,6.66
2023-05-06T10:29:36.575Z,6.02
2023-05-06T10:34:45.301Z,6.43
2023-05-06T10:39:48.071Z,6.62
2023-05-06T10:45:01.455Z,6.75
2023-05-06T10:50:33.049Z,6.77
2023-05-06T10:55:38.463Z,6.28
2023-05-06T11:00:54.196Z,6.70
2023-05-06T11:05:56.683Z,6.11
2023-05-06T11:10:59.199Z,6.58
2023-05-06T11:16:03.000Z,6.73
2023-05-06T11:21:08.725Z,6.86
2023-05-06T11:26:12.410Z,6.88
2023-05-06T11:31:15.559Z,6.67
2023-05-06T11:36:19.143Z,6.82
2023-05-06T11:41:23.153Z,6.76
2023-05-06T11:46:32.082Z,6.80
2023-05-06T11:51:34.507Z,6.72
2023-05-06T11:56:48.029Z,6.67
2023-05-06T12:07:11.380Z,6.07
2023-05-06T12:12:18.059Z,6.48
2023-05-06T12:17:21.989Z,6.49
2023-05-06T12:22:27.694Z,6.50
2023-05-06T12:27:33.532Z,6.83
2023-05-06T12:32:36.020Z,6.37
2023-05-06T12:37:38.358Z,6.09
2023-05-06T12:42:40.793Z,6.80
2023-05-06T12:47:56.443Z,6.97
2023-05-06T12:52:59.063Z,5.98
2023-05-06T12:58:01.539Z,6.59
2023-05-06T13:03:04.125Z,6.72
2023-05-06T13:08:08.600Z,6.62
2023-05-06T13:13:11.119Z,6.78
2023-05-06T13:18:13.595Z,6.25
2023-05-06T13:23:15.928Z,6.89
2023-05-06T13:28:18.374Z,6.86
2023-05-06T13:33:20.771Z,6.39
2023-05-06T13:38:23.270Z,6.43
2023-05-06T13:43:25.633Z,6.64
2023-05-06T13:48:27.937Z,6.60
2023-05-06T13:53:30.406Z,5.62
2023-05-06T13:58:32.873Z,6.34
2023-05-06T14:03:35.417Z,6.40
2023-05-06T14:08:37.880Z,5.81
2023-05-06T14:13:40.966Z,6.26
2023-05-06T14:18:44.349Z,6.37
2023-05-06T14:23:46.657Z,6.24
2023-05-06T14:28:49.055Z,6.09
2023-05-06T14:33:51.558Z,6.13
2023-05-06T14:38:53.820Z,6.49
2023-05-06T14:43:57.360Z,5.95
2023-05-06T14:48:59.673Z,6.19
2023-05-06T14:54:02.154Z,6.24
2023-05-06T14:59:04.552Z,6.30
2023-05-06T15:04:09.884Z,5.64
2023-05-06T15:09:12.165Z,6.01
2023-05-06T15:14:15.913Z,5.79
2023-05-06T15:19:18.283Z,6.19
2023-05-06T15:24:20.962Z,5.86
2023-05-06T15:29:23.428Z,5.65
2023-05-06T15:34:25.877Z,5.64
2023-05-06T15:39:28.762Z,5.76
2023-05-06T15:44:32.087Z,5.94
2023-05-06T15:49:51.443Z,5.75
2023-05-06T15:54:59.466Z,5.54
2023-05-06T16:00:02.626Z,5.71
2023-05-06T16:05:10.026Z,5.44
2023-05-06T16:10:12.693Z,5.72
2023-05-06T16:15:15.221Z,5.29
2023-05-06T16:20:17.611Z,5.23
2023-05-06T16:25:20.136Z,5.05
2023-05-06T16:30:23.630Z,5.56
2023-05-06T16:35:26.196Z,5.05
2023-05-06T16:40:29.073Z,5.39
2023-05-06T16:45:31.753Z,5.18
2023-05-06T16:50:35.582Z,5.11
2023-05-06T16:55:38.159Z,4.72
2023-05-06T17:00:40.763Z,5.10
2023-05-06T17:05:43.218Z,4.90
2023-05-06T17:10:46.438Z,4.99
2023-05-06T17:15:48.849Z,4.50
2023-05-06T17:20:56.385Z,4.32
2023-05-06T17:25:59.844Z,4.60
2023-05-06T17:31:02.310Z,4.14
2023-05-06T17:36:05.355Z,4.55
2023-05-06T17:41:07.969Z,4.43
2023-05-06T17:46:10.620Z,4.16
2023-05-06T17:51:13.029Z,4.25
2023-05-06T17:56:15.432Z,3.96
2023-05-06T18:01:17.864Z,3.63
2023-05-06T18:06:20.296Z,4.13
2023-05-06T18:11:22.784Z,4.05
2023-05-06T18:16:25.466Z,3.95
2023-05-06T18:21:28.248Z,3.39
2023-05-06T18:26:43.243Z,3.48
2023-05-06T18:31:47.033Z,3.51
2023-05-06T18:36:50.114Z,3.24
2023-05-06T18:41:52.756Z,2.63
2023-05-06T18:46:55.156Z,3.40
2023-05-06T18:51:58.110Z,3.21
2023-05-06T18:57:01.415Z,2.99
2023-05-06T19:02:05.242Z,3.32
2023-05-06T19:07:08.371Z,3.11
2023-05-06T19:12:10.840Z,3.23
2023-05-06T19:17:15.119Z,2.98
2023-05-06T19:22:17.673Z,2.68
2023-05-06T19:27:21.620Z,3.00
2023-05-06T19:32:24.074Z,1.81
2023-05-06T19:37:30.618Z,2.74
2023-05-06T19:42:34.304Z,2.82
2023-05-06T19:47:36.806Z,2.16
2023-05-06T19:52:39.200Z,2.43
2023-05-06T19:57:44.308Z,2.11
2023-05-06T20:02:46.921Z,2.34
2023-05-06T20:07:49.409Z,2.45
2023-05-06T20:12:51.783Z,2.30
2023-05-06T20:17:54.270Z,1.96
2023-05-06T20:22:56.778Z,2.10
2023-05-06T20:27:59.893Z,1.87
2023-05-06T20:33:02.330Z,1.63
2023-05-06T20:38:04.834Z,1.61
2023-05-06T20:43:13.138Z,1.65
2023-05-06T20:48:15.757Z,1.41
2023-05-06T20:53:18.185Z,1.67
2023-05-06T20:58:20.614Z,1.40
2023-05-06T21:03:24.490Z,0.76
2023-05-06T21:08:26.929Z,1.44
2023-05-06T21:13:29.220Z,1.21
2023-05-06T21:18:31.792Z,1.46
2023-05-06T21:23:37.181Z,0.93
2023-05-06T21:28:39.680Z,0.81
2023-05-06T21:33:42.075Z,1.16
2023-05-06T21:38:44.384Z,1.08
2023-05-06T21:43:46.759Z,0.66
2023-05-06T21:48:49.199Z,0.84
2023-05-06T21:53:53.415Z,1.11
2023-05-06T21:58:56.253Z,0.93
2023-05-06T22:03:58.729Z,0.89
2023-05-06T22:09:01.223Z,0.84
2023-05-06T22:14:03.952Z,0.49
2023-05-06T22:19:06.752Z,0.90
2023-05-06T22:24:09.408Z,0.73
2023-05-06T22:29:11.886Z,0.64
2023-05-06T22:34:14.173Z,0.64
2023-05-06T22:39:16.646Z,0.58
2023-05-06T22:44:18.913Z,0.37
2023-05-06T22:49:21.346Z,0.64
2023-05-06T22:54:24.328Z,0.42
2023-05-06T22:59:26.736Z,0.37
2023-05-06T23:04:29.114Z,0.04
2023-05-06T23:09:31.455Z,0.44
2023-05-06T23:14:33.704Z,0.39
2023-05-06T23:19:36.735Z,-0.22
2023-05-06T23:24:39.042Z,-0.10
2023-05-06T23:29:41.591Z,-0.68
2023-05-06T23:34:44.053Z,0.02
2023-05-06T23:39:47.955Z,0.14
2023-05-06T23:44:50.276Z,0.09
2023-05-06T23:49:52.854Z,-0.11
2023-05-06T23:54:55.168Z,-0.14
2023-05-06T23:59:57.663Z,-0.02
